WetterOnline ( https://www.wetteronline.ch )

Wetter aktuell Helgoland

Aktuelles Wetter: Helgoland/Düne (8m)

6-stündlich | Neueste Meldungen
Ortszeit Temperatur Wetter
Fr, 23.02. 7:00 6.5° C wolkig
Fr, 23.02. 1:00 5.4° C leichter Regen
Do, 22.02. 19:00 8.3° C bedeckt
Do, 22.02. 13:00 8.8° C leicht bewölkt
Do, 22.02. 7:00 7.1° C Nebel
Do, 22.02. 1:00 7.1° C Sprühregen
Mi, 21.02. 19:00 7.8° C leichter Regen
Mi, 21.02. 13:00 7.7° C bedeckt
Ortszeit Temperatur Wetter
Fr, 23.02. 7:00 6.5° C wolkig
Fr, 23.02. 6:50 6.5° C wolkig
Fr, 23.02. 6:40 6.4° C leicht bewölkt
Fr, 23.02. 6:30 6.0° C leicht bewölkt
Fr, 23.02. 6:20 6.0° C leicht bewölkt
Fr, 23.02. 6:10 5.9° C leicht bewölkt
Fr, 23.02. 6:00 6.6° C wolkig
Fr, 23.02. 5:30 6.9° C wolkig
Fr, 23.02. 5:00 6.8° C wolkig
Fr, 23.02. 4:30 6.5° C wolkig
Fr, 23.02. 4:00 5.8° C leichter Regen
Ortszeit Relative Feuchte Sichtweite
Fr, 23.02. 7:00 75% 12 km
Fr, 23.02. 1:00 93% 2.2 km
Do, 22.02. 19:00 98% 4.9 km
Do, 22.02. 13:00 91% 15 km
Do, 22.02. 7:00 100% 0.4 km
Do, 22.02. 1:00 98% 1.9 km
Mi, 21.02. 19:00 88% 10 km
Mi, 21.02. 13:00 95% 13 km
Ortszeit Relative Feuchte Sichtweite
Fr, 23.02. 7:00 75% 12 km
Fr, 23.02. 6:50 75% -
Fr, 23.02. 6:40 76% -
Fr, 23.02. 6:30 74% 14 km
Fr, 23.02. 6:20 74% -
Fr, 23.02. 6:10 78% -
Fr, 23.02. 6:00 73% 17 km
Fr, 23.02. 5:30 68% 16 km
Fr, 23.02. 5:00 73% 15 km
Fr, 23.02. 4:30 81% 11 km
Fr, 23.02. 4:00 78% 9 km
Ortszeit Niederschlagsmenge Niederschlagsart
Fr, 23.02. 7:00 2 l/m2 in 12 Std. Regen
Fr, 23.02. 1:00 0.3 l/m2 in 6 Std. Regen
Do, 22.02. 19:00 0.1 l/m2 in 12 Std. Regen
Do, 22.02. 13:00 0.1 l/m2 in 6 Std. Sprühregen
Do, 22.02. 7:00 7 l/m2 in 12 Std. Regen
Do, 22.02. 1:00 7 l/m2 in 6 Std. Regen
Mi, 21.02. 19:00 0.1 l/m2 in 12 Std. Regen
Mi, 21.02. 13:00 0.1 l/m2 in 6 Std. Sprühregen
Ortszeit Niederschlagsmenge Niederschlagsart
Fr, 23.02. 7:00 <0.05 l/m2 in 1 Std. Regen
Fr, 23.02. 6:50 keine Meldung -
Fr, 23.02. 6:40 keine Meldung -
Fr, 23.02. 6:30 <0.05 l/m2 in 30 Min Schneeregen
Fr, 23.02. 6:20 keine Meldung -
Fr, 23.02. 6:10 keine Meldung -
Fr, 23.02. 6:00 <0.05 l/m2 in 1 Std. Regen
Fr, 23.02. 5:30 0.0 l/m2 in 30 Min -
Fr, 23.02. 5:00 <0.05 l/m2 in 1 Std. Regen
Fr, 23.02. 4:30 <0.05 l/m2 in 30 Min Schneeregen
Fr, 23.02. 4:00 0.3 l/m2 in 1 Std. Regen
Ortszeit Stärke Spitze Richtung
km/h Bft. km/h Grad Sektor
Fr, 23.02. 7:00 47 6 101 240° SW
Fr, 23.02. 1:00 65 8 97 230° SW
Do, 22.02. 19:00 29 5 43 140° SO
Do, 22.02. 13:00 14 3 29 200° S
Do, 22.02. 7:00 17 3 41 230° SW
Do, 22.02. 1:00 29 5 47 190° S
Mi, 21.02. 19:00 25 4 36 180° S
Mi, 21.02. 13:00 24 4 35 220° SW
Ortszeit Stärke Spitze Richtung
km/h Bft. km/h Grad Sektor
Fr, 23.02. 7:00 47 6 68 240° SW
Fr, 23.02. 6:50 47 6 - 240° SW
Fr, 23.02. 6:40 43 6 - 240° SW
Fr, 23.02. 6:30 43 6 68 240° SW
Fr, 23.02. 6:20 43 6 - 240° SW
Fr, 23.02. 6:10 40 6 - 260° W
Fr, 23.02. 6:00 47 6 86 240° SW
Fr, 23.02. 5:30 48 6 70 250° W
Fr, 23.02. 5:00 48 6 78 240° SW
Fr, 23.02. 4:30 46 6 72 240° SW
Fr, 23.02. 4:00 50 7 90 250° W
Ortszeit Untergrenze Bedeckung Gattung
total tief tief mittel hoch
Fr, 23.02. 7:00 780 m 5/8 5/8 - - -
Fr, 23.02. 1:00 270 m 7/8 7/8 - - -
Do, 22.02. 19:00 90 m 8/8 8/8 - - -
Do, 22.02. 13:00 930 m 3/8 2/8 - - -
Do, 22.02. 7:00 <30 m 8/8 0/8 - - -
Do, 22.02. 1:00 120 m 7/8 7/8 - - -
Mi, 21.02. 19:00 1410 m 8/8 8/8 - - -
Mi, 21.02. 13:00 150 m 8/8 8/8 - - -
Ortszeit Bedeckungsgrad in Achtel und Wolkenuntergrenze
Fr, 23.02. 7:00 1(780m) 5(1500m) 5(2100m)
Fr, 23.02. 6:50 1(780m) 5(1500m) 5(2100m)
Fr, 23.02. 6:40 4
Fr, 23.02. 6:30 1(540m) 4(930m)
Fr, 23.02. 6:20 1(540m) 4(930m) 4(1290m)
Fr, 23.02. 6:10 4
Fr, 23.02. 6:00 1(960m) 5(3600m) 7(4200m)
Fr, 23.02. 5:30 2(870m) 4(1800m) 6(4500m)
Fr, 23.02. 5:00 1(780m) 6(3600m) 8(4200m)
Fr, 23.02. 4:30 3(1020m) 7(3900m) 7(6300m)
Fr, 23.02. 4:00 1(690m) 6(2100m) 6(3600m)
Ortszeit Luftdruck NN (hPa) Tendenz (hPa in 3 Std.)
Fr, 23.02. 7:00 984 + 3,6
Fr, 23.02. 1:00 972 + 0,4
Do, 22.02. 19:00 977 - 5,5
Do, 22.02. 13:00 988 - 3,3
Do, 22.02. 7:00 992 - 1,3
Do, 22.02. 1:00 996 - 3,2
Mi, 21.02. 19:00 1003 - 4,0
Mi, 21.02. 13:00 1011 - 2,3
Ortszeit Luftdruck NN (hPa) Tendenz (hPa in 3 Std.)
Fr, 23.02. 7:00 984 + 3,6
Fr, 23.02. 6:50 984 keine Meldung
Fr, 23.02. 6:40 984 keine Meldung
Fr, 23.02. 6:30 983 + 3,9
Fr, 23.02. 6:20 983 keine Meldung
Fr, 23.02. 6:10 983 keine Meldung
Fr, 23.02. 6:00 983 + 4,3
Fr, 23.02. 5:30 982 + 4,7
Fr, 23.02. 5:00 981 + 5,5
Fr, 23.02. 4:30 981 + 6,6
Fr, 23.02. 4:00 980 + 8,1
Ortszeit Schneehöhe (cm)
Fr, 23.02. 7:00 0
Fr, 23.02. 1:00 0
Do, 22.02. 19:00 0
Do, 22.02. 13:00 0
Do, 22.02. 7:00 0
Do, 22.02. 1:00 0
Mi, 21.02. 19:00 0
Mi, 21.02. 13:00 0
Ortszeit Schneehöhe (cm)
Fr, 23.02. 7:00 0
Fr, 23.02. 6:50 0
Fr, 23.02. 6:40 -
Fr, 23.02. 6:30 0
Fr, 23.02. 6:20 0
Fr, 23.02. 6:10 -
Fr, 23.02. 6:00 0
Fr, 23.02. 5:30 0
Fr, 23.02. 5:00 0
Fr, 23.02. 4:30 0
Fr, 23.02. 4:00 0
Link zu dieser Seite / Seite empfehlen

Das Wetter in ...